Time;durP1;ratioP1;P1;durP2;ratioP2;P2;SDS_P1;SDS_P2;PMS_P1;PMS_P2;Temp;Humidity;BMP_temperature;BMP_pressure;BME280_temperature;BME280_humidity;BME280_pressure;Samples;Min_cycle;Max_cycle;Signal;HPM_P1;HPM_P2
2024/01/04 00:01:59;;;;;;;4.05;1.88;;;;;;;;;;5072745;28;20024;-72
2024/01/04 00:04:45;;;;;;;2.10;1.90;;;;;;;;;;5072278;28;20035;-72
2024/01/04 00:07:30;;;;;;;2.42;2.03;;;;;;;;;;5070158;28;20103;-72
2024/01/04 00:10:17;;;;;;;4.28;2.88;;;;;;;;;;5053516;28;20032;-73
2024/01/04 00:13:03;;;;;;;3.95;1.98;;;;;;;;;;5055990;28;20016;-72
2024/01/04 00:15:49;;;;;;;2.45;1.85;;;;;;;;;;5073284;28;20013;-72
2024/01/04 00:18:34;;;;;;;5.53;1.80;;;;;;;;;;5072808;28;20035;-72
2024/01/04 00:21:20;;;;;;;1.98;1.73;;;;;;;;;;5072657;28;20112;-72
2024/01/04 00:24:06;;;;;;;4.65;3.17;;;;;;;;;;5071023;28;20386;-72
2024/01/04 00:26:52;;;;;;;2.30;1.58;;;;;;;;;;5058529;28;20096;-72
2024/01/04 00:29:37;;;;;;;2.67;2.03;;;;;;;;;;5072274;28;20034;-73
2024/01/04 00:32:25;;;;;;;2.47;2.05;;;;;;;;;;5070227;28;20020;-72
2024/01/04 00:35:11;;;;;;;2.28;1.98;;;;;;;;;;5067278;28;20013;-72
2024/01/04 00:37:57;;;;;;;2.40;1.73;;;;;;;;;;5073288;28;20037;-72
2024/01/04 00:40:44;;;;;;;2.65;1.90;;;;;;;;;;5072571;28;20099;-72
2024/01/04 00:43:30;;;;;;;2.20;1.45;;;;;;;;;;5071634;28;20036;-71
2024/01/04 00:46:16;;;;;;;3.90;1.98;;;;;;;;;;5070548;28;20024;-72
2024/01/04 00:49:01;;;;;;;3.38;2.75;;;;;;;;;;5067821;28;20020;-72
2024/01/04 00:51:47;;;;;;;1.67;1.33;;;;;;;;;;5065432;28;20138;-72
2024/01/04 00:54:32;;;;;;;1.75;1.58;;;;;;;;;;5052822;28;20013;-73
2024/01/04 00:57:18;;;;;;;2.78;1.27;;;;;;;;;;5054450;28;20032;-72
2024/01/04 01:00:04;;;;;;;2.30;1.65;;;;;;;;;;5068435;28;20050;-72
2024/01/04 01:02:50;;;;;;;2.42;1.52;;;;;;;;;;5057871;28;20032;-72
2024/01/04 01:05:35;;;;;;;2.65;2.45;;;;;;;;;;5072360;28;20444;-72
2024/01/04 01:08:21;;;;;;;1.42;1.33;;;;;;;;;;5071460;28;20025;-72
2024/01/04 01:11:08;;;;;;;2.03;1.10;;;;;;;;;;5071975;28;20024;-71
2024/01/04 01:13:54;;;;;;;1.83;1.42;;;;;;;;;;5071640;28;20024;-73
2024/01/04 01:16:39;;;;;;;2.28;1.30;;;;;;;;;;5061607;28;20036;-72
2024/01/04 01:19:25;;;;;;;2.15;1.90;;;;;;;;;;5071551;28;20021;-71
2024/01/04 01:22:10;;;;;;;2.30;1.52;;;;;;;;;;5067123;28;20033;-71
2024/01/04 01:24:56;;;;;;;1.52;1.40;;;;;;;;;;5071865;28;20055;-72
2024/01/04 01:27:42;;;;;;;1.40;1.27;;;;;;;;;;5067310;28;20028;-72
2024/01/04 01:30:29;;;;;;;1.92;1.73;;;;;;;;;;5065965;28;20102;-72
2024/01/04 01:33:14;;;;;;;3.85;1.83;;;;;;;;;;5069138;28;20029;-72
2024/01/04 01:36:02;;;;;;;2.47;1.45;;;;;;;;;;5071105;28;20020;-72
2024/01/04 01:38:47;;;;;;;2.15;1.95;;;;;;;;;;5075487;28;20024;-72
2024/01/04 01:41:33;;;;;;;4.07;1.77;;;;;;;;;;5056077;28;20031;-71
2024/01/04 01:44:18;;;;;;;2.20;1.55;;;;;;;;;;5065754;28;20021;-71
2024/01/04 01:47:04;;;;;;;4.57;2.33;;;;;;;;;;5076208;28;20405;-72
2024/01/04 01:49:50;;;;;;;1.60;1.40;;;;;;;;;;5075454;28;20020;-71
2024/01/04 01:52:36;;;;;;;2.70;1.50;;;;;;;;;;5056190;28;20017;-72
2024/01/04 01:55:22;;;;;;;1.95;1.58;;;;;;;;;;5041397;28;20021;-71
2024/01/04 01:58:08;;;;;;;2.22;1.63;;;;;;;;;;5074272;28;20085;-71
2024/01/04 02:00:54;;;;;;;3.83;1.60;;;;;;;;;;5074931;28;20582;-70
2024/01/04 02:03:39;;;;;;;2.03;1.52;;;;;;;;;;5074912;28;20111;-72
2024/01/04 02:06:25;;;;;;;1.77;1.63;;;;;;;;;;5113043;22;20101;-66
2024/01/04 02:09:11;;;;;;;2.03;1.67;;;;;;;;;;5079795;28;20028;-66
2024/01/04 02:12:04;;;;;;;2.97;1.80;;;;;;;;;;5083910;28;20051;-66
2024/01/04 02:14:54;;;;;;;1.98;1.80;;;;;;;;;;5082968;28;20510;-66
2024/01/04 02:17:40;;;;;;;8.25;1.58;;;;;;;;;;5079086;28;20020;-66
2024/01/04 02:20:26;;;;;;;1.63;1.52;;;;;;;;;;5074447;28;20028;-66
2024/01/04 02:23:18;;;;;;;3.70;2.10;;;;;;;;;;5083524;28;20028;-67
2024/01/04 02:26:03;;;;;;;1.98;1.75;;;;;;;;;;5073680;28;20023;-66
2024/01/04 02:28:49;;;;;;;5.03;2.28;;;;;;;;;;5076148;28;20067;-66
2024/01/04 02:31:34;;;;;;;5.18;1.83;;;;;;;;;;5073278;28;20024;-66
2024/01/04 02:34:20;;;;;;;5.25;1.70;;;;;;;;;;5079712;28;20016;-66
2024/01/04 02:37:06;;;;;;;1.67;1.45;;;;;;;;;;5094474;28;20024;-66
2024/01/04 02:39:51;;;;;;;3.78;1.88;;;;;;;;;;5094320;28;20024;-67
2024/01/04 02:42:37;;;;;;;4.18;2.55;;;;;;;;;;5093726;28;20028;-67
2024/01/04 02:45:22;;;;;;;2.45;1.92;;;;;;;;;;5093720;28;20016;-67
2024/01/04 02:48:08;;;;;;;7.63;1.88;;;;;;;;;;5093733;28;20020;-67
2024/01/04 02:50:54;;;;;;;2.58;1.90;;;;;;;;;;5080887;28;20081;-67
2024/01/04 02:53:39;;;;;;;6.18;1.70;;;;;;;;;;5094259;28;20058;-66
2024/01/04 02:56:25;;;;;;;1.80;1.30;;;;;;;;;;5093502;28;20028;-66
2024/01/04 02:59:11;;;;;;;5.13;2.20;;;;;;;;;;5080741;28;20039;-67
2024/01/04 03:01:57;;;;;;;2.20;1.40;;;;;;;;;;5093609;28;20107;-67
2024/01/04 03:04:44;;;;;;;2.13;1.92;;;;;;;;;;5094297;28;20028;-66
2024/01/04 03:07:30;;;;;;;2.08;1.83;;;;;;;;;;5094450;28;20024;-67
2024/01/04 03:10:15;;;;;;;1.98;1.40;;;;;;;;;;5080187;28;20051;-66
2024/01/04 03:13:03;;;;;;;3.03;2.08;;;;;;;;;;5093564;28;20024;-67
2024/01/04 03:15:48;;;;;;;2.33;1.67;;;;;;;;;;5080175;28;20030;-66
2024/01/04 03:18:34;;;;;;;2.30;2.10;;;;;;;;;;5093521;28;20374;-66
2024/01/04 03:21:20;;;;;;;1.73;1.42;;;;;;;;;;5093608;28;20069;-66
2024/01/04 03:24:05;;;;;;;1.80;1.40;;;;;;;;;;5092780;28;20016;-67
2024/01/04 03:26:51;;;;;;;1.30;1.20;;;;;;;;;;5093467;28;20093;-66
2024/01/04 03:29:36;;;;;;;4.93;2.00;;;;;;;;;;5093064;28;20482;-67
2024/01/04 03:32:22;;;;;;;2.92;2.53;;;;;;;;;;5093123;28;20414;-67
2024/01/04 03:35:08;;;;;;;3.63;2.42;;;;;;;;;;5079835;28;20070;-67
2024/01/04 03:37:54;;;;;;;2.97;2.13;;;;;;;;;;5093309;28;20028;-66
2024/01/04 03:40:39;;;;;;;5.80;2.20;;;;;;;;;;5094100;28;20020;-66
2024/01/04 03:43:25;;;;;;;1.95;1.33;;;;;;;;;;5093230;28;20028;-66
2024/01/04 03:46:10;;;;;;;7.43;1.88;;;;;;;;;;5092645;28;20024;-66
2024/01/04 03:48:56;;;;;;;3.15;2.65;;;;;;;;;;5092967;28;20396;-66
2024/01/04 03:51:42;;;;;;;2.22;1.83;;;;;;;;;;5092728;28;20024;-66
2024/01/04 03:54:27;;;;;;;2.95;1.40;;;;;;;;;;5092441;28;20077;-66
2024/01/04 03:57:13;;;;;;;1.50;1.40;;;;;;;;;;5093229;28;20028;-66
2024/01/04 04:00:01;;;;;;;1.98;1.55;;;;;;;;;;5091521;28;20024;-66
2024/01/04 04:02:46;;;;;;;6.78;1.73;;;;;;;;;;5092989;28;20032;-66
2024/01/04 04:05:32;;;;;;;6.32;1.95;;;;;;;;;;5092401;28;20035;-66
2024/01/04 04:08:18;;;;;;;2.08;1.38;;;;;;;;;;5074532;28;20028;-66
2024/01/04 04:11:14;;;;;;;2.00;1.75;;;;;;;;;;5078520;28;20031;-66
2024/01/04 04:14:00;;;;;;;5.10;1.80;;;;;;;;;;5075713;28;20507;-66
2024/01/04 04:16:46;;;;;;;3.95;1.70;;;;;;;;;;5094015;28;20088;-66
2024/01/04 04:19:31;;;;;;;3.47;2.25;;;;;;;;;;5092388;28;20503;-66
2024/01/04 04:22:17;;;;;;;3.83;1.95;;;;;;;;;;5092972;28;20012;-66
2024/01/04 04:25:03;;;;;;;4.75;1.73;;;;;;;;;;5092049;28;20579;-66
2024/01/04 04:27:49;;;;;;;2.05;1.85;;;;;;;;;;5092607;28;20027;-66
2024/01/04 04:30:34;;;;;;;2.47;1.85;;;;;;;;;;5092339;28;20024;-66
2024/01/04 04:33:20;;;;;;;3.88;1.77;;;;;;;;;;5092315;28;20016;-66
2024/01/04 04:36:06;;;;;;;9.02;3.13;;;;;;;;;;5091611;28;20020;-67
2024/01/04 04:38:52;;;;;;;4.18;2.03;;;;;;;;;;5092319;28;20028;-66
2024/01/04 04:41:38;;;;;;;9.32;1.67;;;;;;;;;;5064467;28;20099;-66
2024/01/04 04:44:24;;;;;;;3.42;1.63;;;;;;;;;;5073236;28;20032;-66
2024/01/04 04:47:10;;;;;;;2.97;1.98;;;;;;;;;;5073886;28;20024;-66
2024/01/04 04:49:55;;;;;;;1.45;1.35;;;;;;;;;;5077531;28;20493;-66
2024/01/04 04:52:41;;;;;;;5.43;1.67;;;;;;;;;;5089215;28;20040;-66
2024/01/04 04:55:26;;;;;;;2.60;1.42;;;;;;;;;;5080407;28;20024;-66
2024/01/04 04:58:12;;;;;;;5.85;1.67;;;;;;;;;;5091918;28;20032;-66
2024/01/04 05:00:58;;;;;;;4.18;1.65;;;;;;;;;;5091627;28;20079;-66
2024/01/04 05:03:43;;;;;;;3.55;1.95;;;;;;;;;;5073318;28;20108;-66
2024/01/04 05:06:29;;;;;;;8.27;2.60;;;;;;;;;;5087668;28;20028;-66
2024/01/04 05:09:17;;;;;;;3.78;1.70;;;;;;;;;;5092416;28;20020;-66
2024/01/04 05:12:03;;;;;;;6.68;2.05;;;;;;;;;;5088738;28;20029;-66
2024/01/04 05:14:48;;;;;;;4.68;2.25;;;;;;;;;;5083126;28;20035;-67
2024/01/04 05:17:34;;;;;;;2.00;1.50;;;;;;;;;;5089536;28;20505;-66
2024/01/04 05:20:20;;;;;;;2.20;1.55;;;;;;;;;;5095701;28;20031;-66
2024/01/04 05:23:07;;;;;;;5.13;1.83;;;;;;;;;;5096974;28;20099;-67
2024/01/04 05:25:52;;;;;;;4.85;1.45;;;;;;;;;;5093978;28;20016;-66
2024/01/04 05:28:38;;;;;;;2.65;1.90;;;;;;;;;;5089859;28;20016;-66
2024/01/04 05:31:25;;;;;;;3.60;1.98;;;;;;;;;;5088385;28;20047;-66
2024/01/04 05:34:10;;;;;;;2.30;1.80;;;;;;;;;;5082457;28;20058;-67
2024/01/04 05:36:56;;;;;;;4.65;2.05;;;;;;;;;;5080742;28;20020;-66
2024/01/04 05:39:42;;;;;;;4.90;1.52;;;;;;;;;;5089841;28;20025;-66
2024/01/04 05:42:27;;;;;;;2.13;1.52;;;;;;;;;;5074515;28;20085;-66
2024/01/04 05:45:13;;;;;;;3.55;2.10;;;;;;;;;;5075950;28;20016;-66
2024/01/04 05:47:59;;;;;;;2.38;1.23;;;;;;;;;;5091865;28;20038;-66
2024/01/04 05:50:45;;;;;;;3.92;2.53;;;;;;;;;;5082786;28;20027;-66
2024/01/04 05:53:30;;;;;;;2.42;1.67;;;;;;;;;;5078254;28;20028;-66
2024/01/04 05:56:16;;;;;;;2.53;1.90;;;;;;;;;;5074593;28;20033;-67
2024/01/04 05:59:02;;;;;;;2.45;1.80;;;;;;;;;;5086173;28;20035;-66
2024/01/04 06:01:47;;;;;;;6.38;2.63;;;;;;;;;;5084322;28;20374;-66
2024/01/04 06:04:33;;;;;;;13.02;2.03;;;;;;;;;;5081810;28;20043;-66
2024/01/04 06:07:18;;;;;;;5.18;2.03;;;;;;;;;;5087619;28;20024;-66
2024/01/04 06:10:05;;;;;;;3.63;1.88;;;;;;;;;;5075470;28;20107;-66
2024/01/04 06:12:50;;;;;;;3.38;1.80;;;;;;;;;;5088817;28;20016;-66
2024/01/04 06:15:36;;;;;;;6.65;2.35;;;;;;;;;;5094710;28;20024;-66
2024/01/04 06:18:21;;;;;;;3.30;1.70;;;;;;;;;;5094809;28;20107;-66
2024/01/04 06:21:07;;;;;;;1.80;1.58;;;;;;;;;;5094220;28;20053;-67
2024/01/04 06:23:54;;;;;;;5.43;2.03;;;;;;;;;;5090595;28;20073;-66
2024/01/04 06:26:40;;;;;;;4.05;2.78;;;;;;;;;;5075070;28;20101;-66
2024/01/04 06:29:26;;;;;;;3.10;2.03;;;;;;;;;;5093504;28;20024;-66
2024/01/04 06:32:11;;;;;;;6.07;2.65;;;;;;;;;;5087090;28;20035;-66
2024/01/04 06:34:57;;;;;;;2.83;1.48;;;;;;;;;;5080724;28;20108;-66
2024/01/04 06:37:42;;;;;;;4.93;1.52;;;;;;;;;;5094725;28;20052;-67
2024/01/04 06:40:28;;;;;;;2.33;1.40;;;;;;;;;;5094623;28;20457;-66
2024/01/04 06:43:14;;;;;;;3.05;1.60;;;;;;;;;;5094255;28;20024;-66
2024/01/04 06:46:01;;;;;;;2.53;1.85;;;;;;;;;;5091368;28;20024;-66
2024/01/04 06:48:47;;;;;;;2.90;1.63;;;;;;;;;;5067974;28;20028;-66
2024/01/04 06:51:33;;;;;;;3.05;1.52;;;;;;;;;;5086915;28;20038;-67
2024/01/04 06:54:18;;;;;;;2.55;1.50;;;;;;;;;;5093651;28;20020;-66
2024/01/04 06:57:06;;;;;;;5.43;1.65;;;;;;;;;;5094653;28;20066;-66
2024/01/04 06:59:52;;;;;;;2.97;1.75;;;;;;;;;;5093105;28;20070;-66
2024/01/04 07:02:38;;;;;;;3.50;1.63;;;;;;;;;;5093807;28;20081;-67
2024/01/04 07:05:24;;;;;;;4.85;1.95;;;;;;;;;;5090294;28;20020;-67
2024/01/04 07:08:09;;;;;;;6.68;1.98;;;;;;;;;;5082455;28;20031;-66
2024/01/04 07:10:55;;;;;;;3.40;2.33;;;;;;;;;;5074217;28;20028;-66
2024/01/04 07:13:40;;;;;;;2.10;1.73;;;;;;;;;;5088083;28;20051;-67
2024/01/04 07:16:26;;;;;;;5.22;1.80;;;;;;;;;;5091268;28;20067;-66
2024/01/04 07:19:12;;;;;;;2.03;1.63;;;;;;;;;;5084026;28;20066;-66
2024/01/04 07:21:58;;;;;;;2.15;1.75;;;;;;;;;;5079665;28;20094;-67
2024/01/04 07:24:43;;;;;;;6.00;2.40;;;;;;;;;;5074100;28;20104;-66
2024/01/04 07:27:29;;;;;;;1.60;1.50;;;;;;;;;;5081954;28;20028;-66
2024/01/04 07:30:15;;;;;;;4.90;1.40;;;;;;;;;;5080828;28;20034;-66
2024/01/04 07:33:01;;;;;;;3.20;1.65;;;;;;;;;;5073210;28;20115;-67
2024/01/04 07:35:46;;;;;;;5.38;2.50;;;;;;;;;;5074689;28;20024;-66
2024/01/04 07:38:34;;;;;;;3.47;1.95;;;;;;;;;;5093700;28;20117;-67
2024/01/04 07:41:19;;;;;;;4.32;1.80;;;;;;;;;;5092589;28;20028;-66
2024/01/04 07:44:05;;;;;;;3.50;1.88;;;;;;;;;;5093607;28;20509;-67
2024/01/04 07:46:51;;;;;;;2.65;2.00;;;;;;;;;;5092538;28;20122;-66
2024/01/04 07:49:36;;;;;;;3.85;2.15;;;;;;;;;;5093190;28;20102;-67
2024/01/04 07:52:22;;;;;;;6.22;1.90;;;;;;;;;;5092971;28;20020;-66
2024/01/04 07:55:08;;;;;;;4.50;1.63;;;;;;;;;;5093220;28;20046;-66
2024/01/04 07:57:53;;;;;;;1.77;1.63;;;;;;;;;;5090310;28;20123;-66
2024/01/04 08:00:39;;;;;;;2.75;1.92;;;;;;;;;;5073129;28;20027;-67
2024/01/04 08:03:24;;;;;;;6.55;2.63;;;;;;;;;;5081309;28;20085;-67
2024/01/04 08:06:10;;;;;;;2.75;1.88;;;;;;;;;;5106087;22;20048;-70
2024/01/04 08:08:56;;;;;;;6.10;1.98;;;;;;;;;;5097259;28;20102;-70
2024/01/04 08:11:41;;;;;;;4.20;1.73;;;;;;;;;;5083814;28;20058;-70
2024/01/04 08:14:27;;;;;;;8.35;2.90;;;;;;;;;;5111822;28;20020;-70
2024/01/04 08:17:13;;;;;;;2.97;1.70;;;;;;;;;;5113219;28;20027;-70
2024/01/04 08:19:59;;;;;;;2.90;1.88;;;;;;;;;;5111967;28;20084;-70
2024/01/04 08:22:45;;;;;;;8.57;2.08;;;;;;;;;;5112488;28;20028;-70
2024/01/04 08:25:30;;;;;;;3.53;1.52;;;;;;;;;;5112128;28;20051;-69
2024/01/04 08:28:16;;;;;;;4.97;2.03;;;;;;;;;;5111529;28;20030;-69
2024/01/04 08:31:02;;;;;;;3.35;1.58;;;;;;;;;;5106904;28;20024;-69
2024/01/04 08:33:47;;;;;;;10.85;1.90;;;;;;;;;;5074940;28;20028;-70
2024/01/04 08:36:33;;;;;;;4.43;2.05;;;;;;;;;;5091862;28;20028;-69
2024/01/04 08:39:19;;;;;;;2.03;1.50;;;;;;;;;;5091882;28;20028;-71
2024/01/04 08:42:06;;;;;;;1.63;1.42;;;;;;;;;;5071995;28;20481;-71
2024/01/04 08:44:51;;;;;;;2.22;1.45;;;;;;;;;;5105510;28;20084;-71
2024/01/04 08:47:37;;;;;;;4.25;1.35;;;;;;;;;;5111394;28;20057;-70
2024/01/04 08:50:23;;;;;;;3.67;1.75;;;;;;;;;;5097960;28;20023;-70
2024/01/04 08:53:08;;;;;;;4.85;2.00;;;;;;;;;;5110890;28;20049;-70
2024/01/04 08:55:55;;;;;;;2.58;1.83;;;;;;;;;;5095513;28;20047;-70
2024/01/04 08:58:41;;;;;;;3.45;2.20;;;;;;;;;;5090972;28;20024;-70
2024/01/04 09:01:27;;;;;;;2.60;1.88;;;;;;;;;;5110909;28;20027;-70
2024/01/04 09:04:13;;;;;;;4.13;1.75;;;;;;;;;;5111461;28;20028;-70
2024/01/04 09:06:58;;;;;;;2.13;1.88;;;;;;;;;;5110958;28;20110;-72
2024/01/04 09:09:44;;;;;;;2.08;1.70;;;;;;;;;;5099587;28;20136;-71
2024/01/04 09:12:30;;;;;;;5.90;1.73;;;;;;;;;;5073912;28;20032;-70
2024/01/04 09:15:16;;;;;;;2.97;2.13;;;;;;;;;;5081752;28;20058;-70
2024/01/04 09:18:01;;;;;;;3.65;1.70;;;;;;;;;;5078994;28;20021;-70
2024/01/04 09:20:47;;;;;;;4.13;2.13;;;;;;;;;;5071592;28;20055;-69
2024/01/04 09:23:32;;;;;;;3.05;1.88;;;;;;;;;;5107919;28;20106;-70
2024/01/04 09:26:18;;;;;;;3.45;1.70;;;;;;;;;;5079510;28;20017;-70
2024/01/04 09:29:04;;;;;;;5.80;2.63;;;;;;;;;;5090224;28;20392;-70
2024/01/04 09:31:49;;;;;;;2.47;1.90;;;;;;;;;;5088583;28;20031;-70
2024/01/04 09:34:35;;;;;;;5.20;3.65;;;;;;;;;;5077867;28;20385;-70
2024/01/04 09:37:21;;;;;;;3.75;2.10;;;;;;;;;;5091824;28;20055;-70
2024/01/04 09:40:07;;;;;;;3.92;1.85;;;;;;;;;;5097664;28;20024;-70
2024/01/04 09:42:54;;;;;;;5.55;2.38;;;;;;;;;;5086532;28;20030;-70
2024/01/04 09:45:43;;;;;;;5.25;2.15;;;;;;;;;;5111680;28;20023;-70
2024/01/04 09:48:33;;;;;;;3.78;2.30;;;;;;;;;;5111470;28;20028;-70
2024/01/04 09:51:18;;;;;;;3.58;1.83;;;;;;;;;;5089679;28;20039;-70
2024/01/04 09:54:07;;;;;;;3.30;1.95;;;;;;;;;;5087608;28;20020;-70
2024/01/04 09:56:54;;;;;;;7.68;2.20;;;;;;;;;;5076919;28;20485;-70
2024/01/04 09:59:40;;;;;;;3.28;1.67;;;;;;;;;;5112089;28;20030;-70
2024/01/04 10:02:25;;;;;;;2.20;1.88;;;;;;;;;;5114715;28;20016;-70
2024/01/04 10:05:15;;;;;;;3.97;1.83;;;;;;;;;;5080514;28;20021;-70
2024/01/04 10:08:07;;;;;;;4.50;1.67;;;;;;;;;;5088212;28;20089;-70
2024/01/04 10:10:56;;;;;;;4.10;1.98;;;;;;;;;;5081113;28;20099;-70
2024/01/04 10:13:42;;;;;;;3.55;3.13;;;;;;;;;;5100691;28;20377;-70
2024/01/04 10:16:29;;;;;;;4.75;2.83;;;;;;;;;;5100749;28;20028;-70
2024/01/04 10:19:15;;;;;;;6.65;2.05;;;;;;;;;;5100384;28;20464;-71
2024/01/04 10:22:04;;;;;;;2.72;1.77;;;;;;;;;;5111954;28;20094;-71
2024/01/04 10:24:51;;;;;;;5.82;2.33;;;;;;;;;;5071790;28;20024;-70
2024/01/04 10:27:37;;;;;;;6.32;1.83;;;;;;;;;;5088400;28;20030;-69
2024/01/04 10:30:22;;;;;;;6.22;2.15;;;;;;;;;;5097749;28;20553;-70
2024/01/04 10:33:08;;;;;;;2.38;2.03;;;;;;;;;;5115590;28;20054;-70
2024/01/04 10:35:54;;;;;;;4.07;2.28;;;;;;;;;;5113945;28;20019;-70
2024/01/04 10:38:39;;;;;;;3.88;2.40;;;;;;;;;;5076112;28;20489;-71
2024/01/04 10:41:28;;;;;;;5.03;2.22;;;;;;;;;;5090083;28;20081;-70
2024/01/04 10:44:13;;;;;;;2.85;1.98;;;;;;;;;;5074630;28;20025;-70
2024/01/04 10:47:00;;;;;;;4.20;2.33;;;;;;;;;;5082603;28;20028;-70
2024/01/04 10:49:47;;;;;;;2.78;1.90;;;;;;;;;;5094199;28;20038;-71
2024/01/04 10:52:35;;;;;;;8.15;2.13;;;;;;;;;;5072148;28;20024;-70
2024/01/04 10:55:21;;;;;;;3.72;1.80;;;;;;;;;;5078666;28;20027;-69
2024/01/04 10:58:06;;;;;;;2.10;1.52;;;;;;;;;;5075399;28;20085;-70
2024/01/04 11:00:52;;;;;;;2.92;1.98;;;;;;;;;;5073606;28;20111;-70
2024/01/04 11:03:41;;;;;;;1.95;1.60;;;;;;;;;;5087528;28;20017;-70
2024/01/04 11:06:27;;;;;;;5.82;2.70;;;;;;;;;;5093076;28;20388;-70
2024/01/04 11:09:13;;;;;;;2.30;1.58;;;;;;;;;;5081754;28;20032;-69
2024/01/04 11:11:59;;;;;;;3.45;2.25;;;;;;;;;;5075180;28;20032;-70
2024/01/04 11:14:44;;;;;;;3.58;2.17;;;;;;;;;;5085792;28;20024;-70
2024/01/04 11:18:16;;;;;;;3.08;2.15;;;;;;;;;;5106717;28;20049;-69
2024/01/04 11:21:23;;;;;;;3.70;2.30;;;;;;;;;;4992139;28;20041;-70
2024/01/04 11:24:22;;;;;;;5.60;2.00;;;;;;;;;;5095689;28;20526;-70
2024/01/04 11:27:12;;;;;;;3.25;1.70;;;;;;;;;;5099470;28;20020;-70
2024/01/04 11:29:58;;;;;;;6.93;2.25;;;;;;;;;;5113650;28;20404;-69
2024/01/04 11:32:44;;;;;;;2.58;2.10;;;;;;;;;;5113647;28;20093;-70
2024/01/04 11:35:35;;;;;;;5.97;3.75;;;;;;;;;;5112451;28;20415;-69
2024/01/04 11:38:34;;;;;;;;;;;;;;;;;;5078166;28;20024;-69
2024/01/04 11:41:30;;;;;;;1.98;1.77;;;;;;;;;;5096321;28;19953;-70
2024/01/04 11:44:18;;;;;;;3.97;1.70;;;;;;;;;;5113886;28;20341;-70
2024/01/04 11:47:04;;;;;;;1.55;1.45;;;;;;;;;;5082897;28;20185;-69
2024/01/04 11:49:58;;;;;;;4.32;2.88;;;;;;;;;;5067424;28;20405;-70
2024/01/04 11:52:45;;;;;;;1.98;1.67;;;;;;;;;;5082280;28;20096;-70
2024/01/04 11:55:31;;;;;;;3.72;2.08;;;;;;;;;;5064362;28;20020;-70
2024/01/04 11:58:28;;;;;;;2.20;1.90;;;;;;;;;;5087088;28;20023;-69
2024/01/04 12:01:23;;;;;;;2.88;1.70;;;;;;;;;;5112444;28;20020;-70
2024/01/04 12:04:12;;;;;;;2.40;1.80;;;;;;;;;;5092730;28;20028;-70
2024/01/04 12:07:00;;;;;;;3.47;2.47;;;;;;;;;;5080971;28;20066;-70
2024/01/04 12:09:56;;;;;;;3.08;1.98;;;;;;;;;;5115901;28;20023;-70
2024/01/04 12:12:42;;;;;;;3.92;2.00;;;;;;;;;;5100649;28;20036;-70
2024/01/04 12:15:27;;;;;;;6.28;2.03;;;;;;;;;;5114040;28;20047;-70
2024/01/04 12:18:13;;;;;;;3.80;2.47;;;;;;;;;;5115318;28;20027;-70
2024/01/04 12:21:04;;;;;;;5.10;2.50;;;;;;;;;;5096968;28;20115;-70
2024/01/04 12:23:51;;;;;;;;;;;;;;;;;;5082083;28;20032;-69
2024/01/04 12:26:37;;;;;;;2.83;2.17;;;;;;;;;;5085213;28;19916;-70
2024/01/04 12:29:23;;;;;;;3.33;1.95;;;;;;;;;;5092146;28;20481;-70
2024/01/04 12:32:08;;;;;;;6.47;2.75;;;;;;;;;;5112424;28;20492;-70
2024/01/04 12:34:54;;;;;;;4.47;2.35;;;;;;;;;;5111601;28;20027;-69
2024/01/04 12:37:39;;;;;;;4.05;1.73;;;;;;;;;;5097364;28;20020;-69
2024/01/04 12:40:26;;;;;;;3.15;2.45;;;;;;;;;;5111881;28;20061;-70
2024/01/04 12:43:14;;;;;;;5.05;2.08;;;;;;;;;;5074940;28;20031;-69
2024/01/04 12:46:04;;;;;;;4.78;2.53;;;;;;;;;;5080928;28;20019;-69
2024/01/04 12:48:53;;;;;;;5.75;2.42;;;;;;;;;;5099733;28;20042;-70
2024/01/04 12:51:40;;;;;;;5.10;2.30;;;;;;;;;;5112607;28;20505;-69
2024/01/04 12:54:26;;;;;;;3.10;2.20;;;;;;;;;;5112631;28;20051;-70
2024/01/04 12:57:12;;;;;;;5.78;2.15;;;;;;;;;;5092912;28;20028;-70
2024/01/04 12:59:57;;;;;;;2.80;2.30;;;;;;;;;;5085688;28;20029;-70
2024/01/04 13:02:43;;;;;;;3.67;3.38;;;;;;;;;;5071947;28;20063;-70
2024/01/04 13:05:28;;;;;;;3.97;2.63;;;;;;;;;;5078747;28;20020;-70
2024/01/04 13:08:14;;;;;;;32.17;9.35;;;;;;;;;;5105224;28;20028;-70
2024/01/04 13:11:02;;;;;;;12.70;4.75;;;;;;;;;;5089919;28;20024;-70
2024/01/04 13:13:50;;;;;;;9.07;4.97;;;;;;;;;;5084151;28;20066;-70
2024/01/04 13:16:35;;;;;;;14.05;6.00;;;;;;;;;;5103623;28;20028;-70
2024/01/04 13:19:21;;;;;;;12.18;4.97;;;;;;;;;;5102299;28;20638;-69
2024/01/04 13:22:07;;;;;;;18.25;6.65;;;;;;;;;;5080130;28;20032;-69
2024/01/04 13:24:53;;;;;;;21.58;5.85;;;;;;;;;;5070877;28;20023;-70
2024/01/04 13:27:39;;;;;;;52.00;17.77;;;;;;;;;;5091775;28;20365;-70
2024/01/04 13:30:25;;;;;;;21.95;6.53;;;;;;;;;;5112470;28;20104;-71
2024/01/04 13:33:11;;;;;;;13.02;5.95;;;;;;;;;;5115113;28;20085;-70
2024/01/04 13:35:58;;;;;;;29.85;11.35;;;;;;;;;;5115298;28;20016;-70
2024/01/04 13:38:44;;;;;;;17.08;5.45;;;;;;;;;;5080864;28;20037;-70
2024/01/04 13:41:29;;;;;;;14.68;4.47;;;;;;;;;;5093715;28;20024;-70
2024/01/04 13:44:16;;;;;;;7.90;3.50;;;;;;;;;;5094782;28;20043;-70
2024/01/04 13:47:01;;;;;;;9.25;3.97;;;;;;;;;;5078907;28;20028;-70
2024/01/04 13:49:47;;;;;;;7.03;3.30;;;;;;;;;;5087660;28;20032;-70
2024/01/04 13:52:33;;;;;;;5.95;3.70;;;;;;;;;;5079780;28;20027;-70
2024/01/04 13:55:19;;;;;;;3.22;2.38;;;;;;;;;;5110647;28;20561;-70
2024/01/04 13:58:05;;;;;;;5.65;3.22;;;;;;;;;;5102167;28;20023;-70
2024/01/04 14:00:51;;;;;;;4.28;2.58;;;;;;;;;;5095090;28;20039;-70
2024/01/04 14:03:36;;;;;;;10.20;2.60;;;;;;;;;;5095012;28;20031;-70
2024/01/04 14:06:22;;;;;;;5.72;2.95;;;;;;;;;;5111033;28;20107;-70
2024/01/04 14:09:08;;;;;;;5.03;2.53;;;;;;;;;;5122247;22;20043;-67
2024/01/04 14:11:54;;;;;;;6.63;3.30;;;;;;;;;;5112282;28;20042;-67
2024/01/04 14:14:40;;;;;;;4.22;2.97;;;;;;;;;;5103260;28;20023;-67
2024/01/04 14:17:26;;;;;;;4.68;2.58;;;;;;;;;;5098868;28;20016;-67
2024/01/04 14:20:12;;;;;;;3.85;2.50;;;;;;;;;;5094817;28;20024;-67
2024/01/04 14:22:57;;;;;;;5.53;2.67;;;;;;;;;;5094463;28;20106;-67
2024/01/04 14:25:43;;;;;;;6.28;4.20;;;;;;;;;;5096395;28;20019;-67
2024/01/04 14:28:29;;;;;;;5.75;3.03;;;;;;;;;;5099034;28;20035;-67
2024/01/04 14:31:14;;;;;;;4.80;3.13;;;;;;;;;;5098954;28;20023;-67
2024/01/04 14:34:00;;;;;;;4.28;2.63;;;;;;;;;;5094471;28;20019;-67
2024/01/04 14:36:45;;;;;;;8.00;2.85;;;;;;;;;;5103902;28;20123;-67
2024/01/04 14:39:31;;;;;;;3.83;2.20;;;;;;;;;;5101987;28;20028;-67
2024/01/04 14:42:17;;;;;;;3.53;2.53;;;;;;;;;;5093084;28;20027;-67
2024/01/04 14:45:02;;;;;;;3.72;2.70;;;;;;;;;;5110388;28;20034;-67
2024/01/04 14:47:48;;;;;;;11.95;2.75;;;;;;;;;;5113146;28;20026;-67
2024/01/04 14:50:34;;;;;;;4.80;2.55;;;;;;;;;;5114109;28;20028;-67
2024/01/04 14:53:19;;;;;;;3.22;2.65;;;;;;;;;;5096150;28;20541;-67
2024/01/04 14:56:06;;;;;;;7.45;2.53;;;;;;;;;;5114308;28;20023;-67
2024/01/04 14:58:52;;;;;;;5.20;2.72;;;;;;;;;;5101573;28;20451;-68
2024/01/04 15:01:38;;;;;;;4.18;2.65;;;;;;;;;;5078554;28;20099;-67
2024/01/04 15:04:23;;;;;;;5.28;2.50;;;;;;;;;;5098365;28;20024;-67
2024/01/04 15:07:09;;;;;;;6.25;2.50;;;;;;;;;;5098205;28;20023;-66
2024/01/04 15:09:55;;;;;;;3.25;2.45;;;;;;;;;;5096174;28;20027;-67
2024/01/04 15:12:40;;;;;;;4.28;2.25;;;;;;;;;;5102274;28;20031;-67
2024/01/04 15:15:29;;;;;;;6.13;2.42;;;;;;;;;;5106478;28;20114;-67
2024/01/04 15:18:15;;;;;;;4.13;2.83;;;;;;;;;;5094194;28;20489;-67
2024/01/04 15:21:00;;;;;;;7.53;2.83;;;;;;;;;;5093948;28;20114;-67
2024/01/04 15:23:46;;;;;;;5.65;2.40;;;;;;;;;;5104290;28;20031;-67
2024/01/04 15:26:32;;;;;;;5.63;2.40;;;;;;;;;;5098340;28;20012;-67
2024/01/04 15:29:18;;;;;;;4.90;3.05;;;;;;;;;;5105893;28;20042;-67
2024/01/04 15:32:07;;;;;;;5.13;3.03;;;;;;;;;;5113220;28;20020;-67
2024/01/04 15:34:52;;;;;;;4.45;2.80;;;;;;;;;;5113121;28;20069;-67
2024/01/04 15:37:38;;;;;;;4.10;2.90;;;;;;;;;;5113515;28;20020;-67
2024/01/04 15:40:24;;;;;;;4.38;3.03;;;;;;;;;;5113167;28;20047;-67
2024/01/04 15:43:10;;;;;;;10.05;3.78;;;;;;;;;;5107485;28;20023;-67
2024/01/04 15:45:56;;;;;;;6.90;2.85;;;;;;;;;;5093434;28;20077;-67
2024/01/04 15:48:41;;;;;;;4.00;3.03;;;;;;;;;;5092478;28;20028;-67
2024/01/04 15:51:27;;;;;;;4.60;2.33;;;;;;;;;;5103402;28;20023;-67
2024/01/04 15:54:13;;;;;;;5.10;2.40;;;;;;;;;;5094144;28;20489;-67
2024/01/04 15:56:58;;;;;;;5.68;2.85;;;;;;;;;;5092483;28;20023;-67
2024/01/04 15:59:44;;;;;;;5.10;2.60;;;;;;;;;;5092187;28;20606;-67
2024/01/04 16:02:30;;;;;;;3.05;2.65;;;;;;;;;;5093101;28;20028;-67
2024/01/04 16:05:17;;;;;;;4.60;3.80;;;;;;;;;;5111009;28;20434;-67
2024/01/04 16:08:03;;;;;;;6.68;2.83;;;;;;;;;;5097339;28;20020;-66
2024/01/04 16:10:48;;;;;;;7.82;3.47;;;;;;;;;;5112919;28;20035;-67
2024/01/04 16:13:34;;;;;;;4.57;2.78;;;;;;;;;;5112668;28;20106;-67
2024/01/04 16:16:20;;;;;;;4.97;2.88;;;;;;;;;;5112200;28;20084;-67
2024/01/04 16:19:06;;;;;;;3.80;2.65;;;;;;;;;;5112316;28;20024;-68
2024/01/04 16:21:51;;;;;;;7.55;2.88;;;;;;;;;;5109211;28;20047;-67
2024/01/04 16:24:37;;;;;;;4.28;2.97;;;;;;;;;;5107523;28;20076;-68
2024/01/04 16:27:22;;;;;;;5.07;3.90;;;;;;;;;;5105755;28;20450;-67
2024/01/04 16:30:10;;;;;;;5.55;2.72;;;;;;;;;;5092043;28;20092;-67
2024/01/04 16:32:55;;;;;;;4.90;2.83;;;;;;;;;;5078413;28;20020;-68
2024/01/04 16:35:42;;;;;;;5.07;2.55;;;;;;;;;;5078440;28;20024;-68
2024/01/04 16:38:28;;;;;;;4.30;2.38;;;;;;;;;;5077516;28;20020;-68